CNT5 weather

Lake Muskoka/Dudley Bay Seaplane Base
Ontario, Canada

Public forecast

Using degrees Celsius for public forecast. Weather courtesy of forecast.io.

Closest aviation weather report (METAR) to Lake Muskoka/Dudley Bay Seaplane Base

Closest report is Muskoka Airport, 13.1 nm (24.2 km) ESE. Retrieved 2019/12/10 10:36 UTC (4 minutes ago):

CYQA 101036Z AUTO 26009G19KT 220V290 5SM -SN BKN011 OVC021 M01/M03 A2954 RMK SLP014

Closest aviation forecast (TAF) to Lake Muskoka/Dudley Bay Seaplane Base

Forecast is more than 12 hours old.

Closest forecast is Muskoka Airport, 13.1 nm (24.2 km) ESE. Retrieved 2019/12/09 20:00 UTC (15 hours ago):

TAF CYQA 091938Z 0920/1003 14012KT 6SM -RA BR OVC008 TEMPO 0920/1003 2SM -RA BR OVC006 BECMG 1001/1003 21008KT RMK FCST BASED ON AUTO OBS NXT FCST WILL BE ISSUED AT 101245Z